sensor_id;sensor_type;location;lat;lon;timestamp;temperature;humidity
4749;DHT22;2388;53.582;9.962;2023-01-08T00:01:08;9.20;99.90
4749;DHT22;2388;53.582;9.962;2023-01-08T00:03:35;9.20;99.90
4749;DHT22;2388;53.582;9.962;2023-01-08T00:06:02;9.20;99.90
4749;DHT22;2388;53.582;9.962;2023-01-08T00:08:29;9.30;99.90
4749;DHT22;2388;53.582;9.962;2023-01-08T00:10:56;9.30;99.90
4749;DHT22;2388;53.582;9.962;2023-01-08T00:13:22;9.30;99.90
4749;DHT22;2388;53.582;9.962;2023-01-08T00:15:47;9.30;99.90
4749;DHT22;2388;53.582;9.962;2023-01-08T00:18:13;9.30;99.90
4749;DHT22;2388;53.582;9.962;2023-01-08T00:20:42;9.30;99.90
4749;DHT22;2388;53.582;9.962;2023-01-08T00:23:15;9.30;99.90
4749;DHT22;2388;53.582;9.962;2023-01-08T00:25:41;9.40;99.90
4749;DHT22;2388;53.582;9.962;2023-01-08T00:28:07;9.40;99.90
4749;DHT22;2388;53.582;9.962;2023-01-08T00:30:32;9.40;99.90
4749;DHT22;2388;53.582;9.962;2023-01-08T00:32:58;9.50;99.90
4749;DHT22;2388;53.582;9.962;2023-01-08T00:35:23;9.50;99.90
4749;DHT22;2388;53.582;9.962;2023-01-08T00:37:49;9.50;99.90
4749;DHT22;2388;53.582;9.962;2023-01-08T00:40:14;9.50;99.90
4749;DHT22;2388;53.582;9.962;2023-01-08T00:42:40;9.50;99.90
4749;DHT22;2388;53.582;9.962;2023-01-08T00:45:06;9.50;99.90
4749;DHT22;2388;53.582;9.962;2023-01-08T00:47:31;9.60;99.90
4749;DHT22;2388;53.582;9.962;2023-01-08T00:49:57;9.60;99.90
4749;DHT22;2388;53.582;9.962;2023-01-08T00:52:22;9.60;99.90
4749;DHT22;2388;53.582;9.962;2023-01-08T00:54:48;9.60;99.90
4749;DHT22;2388;53.582;9.962;2023-01-08T00:57:13;9.60;99.90
4749;DHT22;2388;53.582;9.962;2023-01-08T00:59:39;9.60;99.90
4749;DHT22;2388;53.582;9.962;2023-01-08T01:02:04;9.60;99.90
4749;DHT22;2388;53.582;9.962;2023-01-08T01:04:30;9.60;99.90
4749;DHT22;2388;53.582;9.962;2023-01-08T01:06:56;9.60;99.90
4749;DHT22;2388;53.582;9.962;2023-01-08T01:09:22;9.60;99.90
4749;DHT22;2388;53.582;9.962;2023-01-08T01:11:47;9.60;99.90
4749;DHT22;2388;53.582;9.962;2023-01-08T01:14:12;9.60;99.90
4749;DHT22;2388;53.582;9.962;2023-01-08T01:16:38;9.60;99.90
4749;DHT22;2388;53.582;9.962;2023-01-08T01:19:05;9.50;99.90
4749;DHT22;2388;53.582;9.962;2023-01-08T01:21:31;9.60;99.90
4749;DHT22;2388;53.582;9.962;2023-01-08T01:24:00;9.60;99.90
4749;DHT22;2388;53.582;9.962;2023-01-08T01:26:27;9.60;99.90
4749;DHT22;2388;53.582;9.962;2023-01-08T01:28:54;9.60;99.90
4749;DHT22;2388;53.582;9.962;2023-01-08T01:31:21;9.60;99.90
4749;DHT22;2388;53.582;9.962;2023-01-08T01:33:47;9.60;99.90
4749;DHT22;2388;53.582;9.962;2023-01-08T01:36:14;9.60;99.90
4749;DHT22;2388;53.582;9.962;2023-01-08T01:38:47;9.70;99.90
4749;DHT22;2388;53.582;9.962;2023-01-08T01:43:55;9.70;99.90
4749;DHT22;2388;53.582;9.962;2023-01-08T01:49:00;9.80;99.90
4749;DHT22;2388;53.582;9.962;2023-01-08T01:51:30;9.80;99.90
4749;DHT22;2388;53.582;9.962;2023-01-08T01:53:57;9.80;99.90
4749;DHT22;2388;53.582;9.962;2023-01-08T01:56:23;9.80;99.90
4749;DHT22;2388;53.582;9.962;2023-01-08T01:58:49;9.80;99.90
4749;DHT22;2388;53.582;9.962;2023-01-08T02:01:14;9.80;99.90
4749;DHT22;2388;53.582;9.962;2023-01-08T02:03:40;9.80;99.90
4749;DHT22;2388;53.582;9.962;2023-01-08T02:09:13;9.80;99.90
4749;DHT22;2388;53.582;9.962;2023-01-08T02:17:47;9.70;99.90
4749;DHT22;2388;53.582;9.962;2023-01-08T02:20:19;9.70;99.90
4749;DHT22;2388;53.582;9.962;2023-01-08T02:23:13;9.70;99.90
4749;DHT22;2388;53.582;9.962;2023-01-08T02:28:25;9.70;99.90
4749;DHT22;2388;53.582;9.962;2023-01-08T02:30:51;9.80;99.90
4749;DHT22;2388;53.582;9.962;2023-01-08T02:33:17;9.70;99.90
4749;DHT22;2388;53.582;9.962;2023-01-08T02:35:52;9.70;99.90
4749;DHT22;2388;53.582;9.962;2023-01-08T02:38:18;9.70;99.90
4749;DHT22;2388;53.582;9.962;2023-01-08T02:40:58;9.70;99.90
4749;DHT22;2388;53.582;9.962;2023-01-08T02:43:46;9.70;99.90
4749;DHT22;2388;53.582;9.962;2023-01-08T02:46:16;9.70;99.90
4749;DHT22;2388;53.582;9.962;2023-01-08T02:48:55;9.70;99.90
4749;DHT22;2388;53.582;9.962;2023-01-08T02:51:49;9.70;99.90
4749;DHT22;2388;53.582;9.962;2023-01-08T02:54:22;9.70;99.90
4749;DHT22;2388;53.582;9.962;2023-01-08T02:56:54;9.70;99.90
4749;DHT22;2388;53.582;9.962;2023-01-08T02:59:22;9.60;99.90
4749;DHT22;2388;53.582;9.962;2023-01-08T03:01:49;9.70;99.90
4749;DHT22;2388;53.582;9.962;2023-01-08T03:04:19;9.70;99.90
4749;DHT22;2388;53.582;9.962;2023-01-08T03:06:45;9.60;99.90
4749;DHT22;2388;53.582;9.962;2023-01-08T03:09:11;9.70;99.90
4749;DHT22;2388;53.582;9.962;2023-01-08T03:11:44;9.70;99.90
4749;DHT22;2388;53.582;9.962;2023-01-08T03:16:44;9.70;99.90
4749;DHT22;2388;53.582;9.962;2023-01-08T03:19:15;9.70;99.90
4749;DHT22;2388;53.582;9.962;2023-01-08T03:21:42;9.70;99.90
4749;DHT22;2388;53.582;9.962;2023-01-08T03:24:12;9.70;99.90
4749;DHT22;2388;53.582;9.962;2023-01-08T03:26:38;9.70;99.90
4749;DHT22;2388;53.582;9.962;2023-01-08T03:29:05;9.70;99.90
4749;DHT22;2388;53.582;9.962;2023-01-08T03:31:34;9.70;99.90
4749;DHT22;2388;53.582;9.962;2023-01-08T03:34:01;9.70;99.90
4749;DHT22;2388;53.582;9.962;2023-01-08T03:36:28;9.60;99.90
4749;DHT22;2388;53.582;9.962;2023-01-08T03:39:11;9.60;99.90
4749;DHT22;2388;53.582;9.962;2023-01-08T03:41:38;9.60;99.90
4749;DHT22;2388;53.582;9.962;2023-01-08T03:44:04;9.60;99.90
4749;DHT22;2388;53.582;9.962;2023-01-08T03:46:36;9.60;99.90
4749;DHT22;2388;53.582;9.962;2023-01-08T03:49:04;9.60;99.90
4749;DHT22;2388;53.582;9.962;2023-01-08T03:51:39;9.60;99.90
4749;DHT22;2388;53.582;9.962;2023-01-08T03:54:06;9.60;99.90
4749;DHT22;2388;53.582;9.962;2023-01-08T03:56:33;9.60;99.90
4749;DHT22;2388;53.582;9.962;2023-01-08T03:58:58;9.60;99.90
4749;DHT22;2388;53.582;9.962;2023-01-08T04:01:24;9.70;99.90
4749;DHT22;2388;53.582;9.962;2023-01-08T04:03:49;9.60;99.90
4749;DHT22;2388;53.582;9.962;2023-01-08T04:06:15;9.70;99.90
4749;DHT22;2388;53.582;9.962;2023-01-08T04:08:40;9.70;99.90
4749;DHT22;2388;53.582;9.962;2023-01-08T04:11:06;9.70;99.90
4749;DHT22;2388;53.582;9.962;2023-01-08T04:13:31;9.70;99.90
4749;DHT22;2388;53.582;9.962;2023-01-08T04:15:57;9.80;99.90
4749;DHT22;2388;53.582;9.962;2023-01-08T04:18:22;9.80;99.90
4749;DHT22;2388;53.582;9.962;2023-01-08T04:20:48;9.80;99.90
4749;DHT22;2388;53.582;9.962;2023-01-08T04:23:14;9.80;99.90
4749;DHT22;2388;53.582;9.962;2023-01-08T04:25:39;9.80;99.90
4749;DHT22;2388;53.582;9.962;2023-01-08T04:28:05;9.80;99.90
4749;DHT22;2388;53.582;9.962;2023-01-08T04:30:30;9.80;99.90
4749;DHT22;2388;53.582;9.962;2023-01-08T04:32:56;9.80;99.90
4749;DHT22;2388;53.582;9.962;2023-01-08T04:35:22;9.80;99.90
4749;DHT22;2388;53.582;9.962;2023-01-08T04:37:47;9.80;99.90
4749;DHT22;2388;53.582;9.962;2023-01-08T04:40:13;10.30;99.90
4749;DHT22;2388;53.582;9.962;2023-01-08T04:42:39;9.80;99.90
4749;DHT22;2388;53.582;9.962;2023-01-08T04:45:05;9.80;99.90
4749;DHT22;2388;53.582;9.962;2023-01-08T04:47:31;9.80;99.90
4749;DHT22;2388;53.582;9.962;2023-01-08T04:49:57;9.80;99.90
4749;DHT22;2388;53.582;9.962;2023-01-08T04:52:22;9.80;99.90
4749;DHT22;2388;53.582;9.962;2023-01-08T04:54:48;9.80;99.90
4749;DHT22;2388;53.582;9.962;2023-01-08T04:57:13;9.80;99.90
4749;DHT22;2388;53.582;9.962;2023-01-08T04:59:39;9.80;99.90
4749;DHT22;2388;53.582;9.962;2023-01-08T05:02:04;9.80;99.90
4749;DHT22;2388;53.582;9.962;2023-01-08T05:04:30;9.90;99.90
4749;DHT22;2388;53.582;9.962;2023-01-08T05:06:55;9.90;99.90
4749;DHT22;2388;53.582;9.962;2023-01-08T05:09:21;9.90;99.90
4749;DHT22;2388;53.582;9.962;2023-01-08T05:11:47;9.80;99.90
4749;DHT22;2388;53.582;9.962;2023-01-08T05:14:12;9.80;99.90
4749;DHT22;2388;53.582;9.962;2023-01-08T05:16:38;9.80;99.90
4749;DHT22;2388;53.582;9.962;2023-01-08T05:19:03;9.80;99.90
4749;DHT22;2388;53.582;9.962;2023-01-08T05:21:29;9.90;99.90
4749;DHT22;2388;53.582;9.962;2023-01-08T05:23:54;9.80;99.90
4749;DHT22;2388;53.582;9.962;2023-01-08T05:26:20;9.80;99.90
4749;DHT22;2388;53.582;9.962;2023-01-08T05:28:45;9.80;99.90
4749;DHT22;2388;53.582;9.962;2023-01-08T05:31:11;9.80;99.90
4749;DHT22;2388;53.582;9.962;2023-01-08T05:33:38;9.80;99.90
4749;DHT22;2388;53.582;9.962;2023-01-08T05:36:09;9.80;99.90
4749;DHT22;2388;53.582;9.962;2023-01-08T05:38:35;9.80;99.90
4749;DHT22;2388;53.582;9.962;2023-01-08T05:41:01;9.80;99.90
4749;DHT22;2388;53.582;9.962;2023-01-08T05:43:26;9.80;99.90
4749;DHT22;2388;53.582;9.962;2023-01-08T05:45:52;9.80;99.90
4749;DHT22;2388;53.582;9.962;2023-01-08T05:48:17;9.80;99.90
4749;DHT22;2388;53.582;9.962;2023-01-08T05:50:43;9.80;99.90
4749;DHT22;2388;53.582;9.962;2023-01-08T05:53:08;9.80;99.90
4749;DHT22;2388;53.582;9.962;2023-01-08T05:55:34;9.80;99.90
4749;DHT22;2388;53.582;9.962;2023-01-08T05:58:04;9.80;99.90
4749;DHT22;2388;53.582;9.962;2023-01-08T06:00:30;9.80;99.90
4749;DHT22;2388;53.582;9.962;2023-01-08T06:02:56;9.80;99.90
4749;DHT22;2388;53.582;9.962;2023-01-08T06:05:22;9.80;99.90
4749;DHT22;2388;53.582;9.962;2023-01-08T06:07:47;9.70;99.90
4749;DHT22;2388;53.582;9.962;2023-01-08T06:10:13;9.80;99.90
4749;DHT22;2388;53.582;9.962;2023-01-08T06:12:38;9.80;99.90
4749;DHT22;2388;53.582;9.962;2023-01-08T06:15:04;9.90;99.90
4749;DHT22;2388;53.582;9.962;2023-01-08T06:17:30;9.80;99.90
4749;DHT22;2388;53.582;9.962;2023-01-08T06:19:56;9.80;99.90
4749;DHT22;2388;53.582;9.962;2023-01-08T06:22:21;9.80;99.90
4749;DHT22;2388;53.582;9.962;2023-01-08T06:24:47;9.80;99.90
4749;DHT22;2388;53.582;9.962;2023-01-08T06:27:13;9.80;99.90
4749;DHT22;2388;53.582;9.962;2023-01-08T06:29:38;9.80;99.90
4749;DHT22;2388;53.582;9.962;2023-01-08T06:32:04;9.80;99.90
4749;DHT22;2388;53.582;9.962;2023-01-08T06:34:29;9.80;99.90
4749;DHT22;2388;53.582;9.962;2023-01-08T06:36:55;9.80;99.90
4749;DHT22;2388;53.582;9.962;2023-01-08T06:39:20;9.80;99.90
4749;DHT22;2388;53.582;9.962;2023-01-08T06:41:46;9.80;99.90
4749;DHT22;2388;53.582;9.962;2023-01-08T06:44:11;9.70;99.90
4749;DHT22;2388;53.582;9.962;2023-01-08T06:46:37;9.70;99.90
4749;DHT22;2388;53.582;9.962;2023-01-08T06:49:07;9.70;99.90
4749;DHT22;2388;53.582;9.962;2023-01-08T06:51:34;9.70;99.90
4749;DHT22;2388;53.582;9.962;2023-01-08T06:53:59;9.70;99.90
4749;DHT22;2388;53.582;9.962;2023-01-08T06:56:25;9.70;99.90
4749;DHT22;2388;53.582;9.962;2023-01-08T06:58:50;9.70;99.90
4749;DHT22;2388;53.582;9.962;2023-01-08T07:01:16;9.70;99.90
4749;DHT22;2388;53.582;9.962;2023-01-08T07:03:42;9.70;99.90
4749;DHT22;2388;53.582;9.962;2023-01-08T07:06:15;9.70;99.90
4749;DHT22;2388;53.582;9.962;2023-01-08T07:08:42;9.70;99.90
4749;DHT22;2388;53.582;9.962;2023-01-08T07:11:08;9.70;99.90
4749;DHT22;2388;53.582;9.962;2023-01-08T07:13:33;9.70;99.90
4749;DHT22;2388;53.582;9.962;2023-01-08T07:16:05;9.70;99.90
4749;DHT22;2388;53.582;9.962;2023-01-08T07:18:31;9.70;99.90
4749;DHT22;2388;53.582;9.962;2023-01-08T07:20:56;9.70;99.90
4749;DHT22;2388;53.582;9.962;2023-01-08T07:23:22;9.70;99.90
4749;DHT22;2388;53.582;9.962;2023-01-08T07:25:47;9.70;99.90
4749;DHT22;2388;53.582;9.962;2023-01-08T07:28:13;9.70;99.90
4749;DHT22;2388;53.582;9.962;2023-01-08T07:30:38;9.70;99.90
4749;DHT22;2388;53.582;9.962;2023-01-08T07:33:04;9.70;99.90
4749;DHT22;2388;53.582;9.962;2023-01-08T07:35:30;9.70;99.90
4749;DHT22;2388;53.582;9.962;2023-01-08T07:37:55;9.70;99.90
4749;DHT22;2388;53.582;9.962;2023-01-08T07:40:21;9.70;99.90
4749;DHT22;2388;53.582;9.962;2023-01-08T07:42:46;9.80;99.90
4749;DHT22;2388;53.582;9.962;2023-01-08T07:45:12;9.80;99.90
4749;DHT22;2388;53.582;9.962;2023-01-08T07:47:37;9.80;99.90
4749;DHT22;2388;53.582;9.962;2023-01-08T07:50:03;9.80;99.90
4749;DHT22;2388;53.582;9.962;2023-01-08T07:52:29;9.80;99.90
4749;DHT22;2388;53.582;9.962;2023-01-08T07:54:54;9.80;99.90
4749;DHT22;2388;53.582;9.962;2023-01-08T07:57:20;9.80;99.90
4749;DHT22;2388;53.582;9.962;2023-01-08T07:59:45;9.90;99.90
4749;DHT22;2388;53.582;9.962;2023-01-08T08:02:11;9.90;99.90
4749;DHT22;2388;53.582;9.962;2023-01-08T08:04:36;10.10;99.90
4749;DHT22;2388;53.582;9.962;2023-01-08T08:07:02;10.20;99.90
4749;DHT22;2388;53.582;9.962;2023-01-08T08:09:28;10.30;99.90
4749;DHT22;2388;53.582;9.962;2023-01-08T08:11:53;10.30;99.90
4749;DHT22;2388;53.582;9.962;2023-01-08T08:14:19;10.40;99.90
4749;DHT22;2388;53.582;9.962;2023-01-08T08:16:44;10.30;99.90
4749;DHT22;2388;53.582;9.962;2023-01-08T08:19:10;10.30;99.90
4749;DHT22;2388;53.582;9.962;2023-01-08T08:21:37;10.20;99.90
4749;DHT22;2388;53.582;9.962;2023-01-08T08:24:02;10.20;99.90
4749;DHT22;2388;53.582;9.962;2023-01-08T08:26:28;10.30;99.90
4749;DHT22;2388;53.582;9.962;2023-01-08T08:28:54;10.30;99.90
4749;DHT22;2388;53.582;9.962;2023-01-08T08:31:19;10.30;99.90
4749;DHT22;2388;53.582;9.962;2023-01-08T08:33:45;10.30;99.90
4749;DHT22;2388;53.582;9.962;2023-01-08T08:36:10;10.30;99.90
4749;DHT22;2388;53.582;9.962;2023-01-08T08:38:36;10.30;99.90
4749;DHT22;2388;53.582;9.962;2023-01-08T08:41:02;10.30;99.90
4749;DHT22;2388;53.582;9.962;2023-01-08T08:43:28;10.30;99.90
4749;DHT22;2388;53.582;9.962;2023-01-08T08:45:56;10.30;99.90
4749;DHT22;2388;53.582;9.962;2023-01-08T08:48:22;10.30;99.90
4749;DHT22;2388;53.582;9.962;2023-01-08T08:50:48;10.30;99.90
4749;DHT22;2388;53.582;9.962;2023-01-08T08:53:14;10.30;99.90
4749;DHT22;2388;53.582;9.962;2023-01-08T08:55:39;10.30;99.90
4749;DHT22;2388;53.582;9.962;2023-01-08T08:58:07;10.30;99.90
4749;DHT22;2388;53.582;9.962;2023-01-08T09:00:36;10.30;99.90
4749;DHT22;2388;53.582;9.962;2023-01-08T09:03:01;10.20;99.90
4749;DHT22;2388;53.582;9.962;2023-01-08T09:05:27;10.20;99.90
4749;DHT22;2388;53.582;9.962;2023-01-08T09:07:53;10.20;99.90
4749;DHT22;2388;53.582;9.962;2023-01-08T09:10:19;10.30;99.90
4749;DHT22;2388;53.582;9.962;2023-01-08T09:12:45;10.30;99.90
4749;DHT22;2388;53.582;9.962;2023-01-08T09:15:11;10.30;99.90
4749;DHT22;2388;53.582;9.962;2023-01-08T09:17:36;10.30;99.90
4749;DHT22;2388;53.582;9.962;2023-01-08T09:20:03;10.30;99.90
4749;DHT22;2388;53.582;9.962;2023-01-08T09:22:29;10.30;99.90
4749;DHT22;2388;53.582;9.962;2023-01-08T09:24:55;10.30;99.90
4749;DHT22;2388;53.582;9.962;2023-01-08T09:27:20;10.20;99.90
4749;DHT22;2388;53.582;9.962;2023-01-08T09:29:46;10.10;99.90
4749;DHT22;2388;53.582;9.962;2023-01-08T09:32:11;10.00;99.90
4749;DHT22;2388;53.582;9.962;2023-01-08T09:34:37;9.90;99.90
4749;DHT22;2388;53.582;9.962;2023-01-08T09:37:04;9.90;99.90
4749;DHT22;2388;53.582;9.962;2023-01-08T09:39:29;9.90;99.90
4749;DHT22;2388;53.582;9.962;2023-01-08T09:41:56;9.90;99.90
4749;DHT22;2388;53.582;9.962;2023-01-08T09:44:25;9.90;99.90
4749;DHT22;2388;53.582;9.962;2023-01-08T09:46:53;9.90;99.90
4749;DHT22;2388;53.582;9.962;2023-01-08T09:49:24;9.90;99.90
4749;DHT22;2388;53.582;9.962;2023-01-08T09:51:53;10.10;99.90
4749;DHT22;2388;53.582;9.962;2023-01-08T09:54:20;10.20;99.90
4749;DHT22;2388;53.582;9.962;2023-01-08T09:56:47;10.20;99.90
4749;DHT22;2388;53.582;9.962;2023-01-08T09:59:16;10.20;99.90
4749;DHT22;2388;53.582;9.962;2023-01-08T10:01:42;10.20;99.90
4749;DHT22;2388;53.582;9.962;2023-01-08T10:09:45;10.00;99.90
4749;DHT22;2388;53.582;9.962;2023-01-08T10:12:12;10.00;99.90
4749;DHT22;2388;53.582;9.962;2023-01-08T10:14:39;10.00;99.90
4749;DHT22;2388;53.582;9.962;2023-01-08T10:17:37;10.00;99.90
4749;DHT22;2388;53.582;9.962;2023-01-08T10:20:23;10.00;99.90
4749;DHT22;2388;53.582;9.962;2023-01-08T10:22:49;10.20;99.90
4749;DHT22;2388;53.582;9.962;2023-01-08T10:25:21;10.30;99.90
4749;DHT22;2388;53.582;9.962;2023-01-08T10:27:49;10.30;99.90
4749;DHT22;2388;53.582;9.962;2023-01-08T10:30:27;10.40;99.90
4749;DHT22;2388;53.582;9.962;2023-01-08T10:33:01;10.30;99.90
4749;DHT22;2388;53.582;9.962;2023-01-08T10:35:35;10.20;99.90
4749;DHT22;2388;53.582;9.962;2023-01-08T10:38:02;10.20;99.90
4749;DHT22;2388;53.582;9.962;2023-01-08T10:40:38;10.20;99.90
4749;DHT22;2388;53.582;9.962;2023-01-08T10:43:21;10.10;99.90
4749;DHT22;2388;53.582;9.962;2023-01-08T10:46:06;10.10;99.90
4749;DHT22;2388;53.582;9.962;2023-01-08T10:48:38;10.10;99.90
4749;DHT22;2388;53.582;9.962;2023-01-08T10:51:23;10.10;99.90
4749;DHT22;2388;53.582;9.962;2023-01-08T10:53:50;10.20;99.90
4749;DHT22;2388;53.582;9.962;2023-01-08T10:56:25;10.20;99.90
4749;DHT22;2388;53.582;9.962;2023-01-08T10:58:51;10.10;99.90
4749;DHT22;2388;53.582;9.962;2023-01-08T11:01:29;10.10;99.90
4749;DHT22;2388;53.582;9.962;2023-01-08T11:04:00;10.10;99.90
4749;DHT22;2388;53.582;9.962;2023-01-08T11:06:32;10.10;99.90
4749;DHT22;2388;53.582;9.962;2023-01-08T11:09:00;10.00;99.90
4749;DHT22;2388;53.582;9.962;2023-01-08T11:11:36;10.10;99.90
4749;DHT22;2388;53.582;9.962;2023-01-08T11:14:04;10.10;99.90
4749;DHT22;2388;53.582;9.962;2023-01-08T11:16:36;10.00;99.90
4749;DHT22;2388;53.582;9.962;2023-01-08T11:19:02;10.00;99.90
4749;DHT22;2388;53.582;9.962;2023-01-08T11:21:30;10.00;99.90
4749;DHT22;2388;53.582;9.962;2023-01-08T11:24:14;10.00;99.90
4749;DHT22;2388;53.582;9.962;2023-01-08T11:26:44;10.00;99.90
4749;DHT22;2388;53.582;9.962;2023-01-08T11:29:28;10.00;99.90
4749;DHT22;2388;53.582;9.962;2023-01-08T11:32:23;10.10;99.90
4749;DHT22;2388;53.582;9.962;2023-01-08T11:34:58;10.10;99.90
4749;DHT22;2388;53.582;9.962;2023-01-08T11:37:31;10.20;99.90
4749;DHT22;2388;53.582;9.962;2023-01-08T11:39:57;10.30;99.90
4749;DHT22;2388;53.582;9.962;2023-01-08T11:42:45;10.40;99.90
4749;DHT22;2388;53.582;9.962;2023-01-08T11:45:17;10.40;99.90
4749;DHT22;2388;53.582;9.962;2023-01-08T11:50:52;10.50;99.90
4749;DHT22;2388;53.582;9.962;2023-01-08T11:53:30;10.50;99.90
4749;DHT22;2388;53.582;9.962;2023-01-08T12:02:00;10.60;99.90
4749;DHT22;2388;53.582;9.962;2023-01-08T12:07:31;10.80;99.90
4749;DHT22;2388;53.582;9.962;2023-01-08T12:15:55;10.90;99.90
4749;DHT22;2388;53.582;9.962;2023-01-08T12:34:59;11.30;74.80
4749;DHT22;2388;53.582;9.962;2023-01-08T12:37:35;11.40;72.70
4749;DHT22;2388;53.582;9.962;2023-01-08T12:40:16;11.40;69.70
4749;DHT22;2388;53.582;9.962;2023-01-08T12:42:44;11.30;63.70
4749;DHT22;2388;53.582;9.962;2023-01-08T12:45:18;11.20;69.60
4749;DHT22;2388;53.582;9.962;2023-01-08T12:47:48;11.20;78.30
4749;DHT22;2388;53.582;9.962;2023-01-08T12:50:31;11.20;85.10
4749;DHT22;2388;53.582;9.962;2023-01-08T12:53:11;11.30;91.20
4749;DHT22;2388;53.582;9.962;2023-01-08T12:55:49;11.30;93.80
4749;DHT22;2388;53.582;9.962;2023-01-08T13:00:55;11.20;99.90
4749;DHT22;2388;53.582;9.962;2023-01-08T13:03:26;11.10;99.90
4749;DHT22;2388;53.582;9.962;2023-01-08T13:06:04;11.00;99.90
4749;DHT22;2388;53.582;9.962;2023-01-08T13:08:32;10.90;99.90
4749;DHT22;2388;53.582;9.962;2023-01-08T13:10:59;10.90;99.90
4749;DHT22;2388;53.582;9.962;2023-01-08T13:13:36;10.90;99.90
4749;DHT22;2388;53.582;9.962;2023-01-08T13:16:27;10.90;99.90
4749;DHT22;2388;53.582;9.962;2023-01-08T13:18:57;11.00;99.90
4749;DHT22;2388;53.582;9.962;2023-01-08T13:21:37;11.20;99.90
4749;DHT22;2388;53.582;9.962;2023-01-08T13:26:35;11.30;99.90
4749;DHT22;2388;53.582;9.962;2023-01-08T13:29:22;11.40;99.90
4749;DHT22;2388;53.582;9.962;2023-01-08T13:31:48;11.60;99.90
4749;DHT22;2388;53.582;9.962;2023-01-08T13:34:22;11.60;99.90
4749;DHT22;2388;53.582;9.962;2023-01-08T13:36:58;11.60;99.90
4749;DHT22;2388;53.582;9.962;2023-01-08T13:39:32;11.60;99.90
4749;DHT22;2388;53.582;9.962;2023-01-08T13:42:20;11.60;99.90
4749;DHT22;2388;53.582;9.962;2023-01-08T13:44:51;11.60;95.50
4749;DHT22;2388;53.582;9.962;2023-01-08T13:47:22;11.60;99.10
4749;DHT22;2388;53.582;9.962;2023-01-08T13:49:52;11.50;99.90
4749;DHT22;2388;53.582;9.962;2023-01-08T13:52:31;11.50;99.90
4749;DHT22;2388;53.582;9.962;2023-01-08T13:54:59;11.40;99.40
4749;DHT22;2388;53.582;9.962;2023-01-08T13:57:41;11.40;94.50
4749;DHT22;2388;53.582;9.962;2023-01-08T14:02:53;11.30;95.30
4749;DHT22;2388;53.582;9.962;2023-01-08T14:05:23;11.20;93.50
4749;DHT22;2388;53.582;9.962;2023-01-08T14:10:18;11.10;88.10
4749;DHT22;2388;53.582;9.962;2023-01-08T14:12:44;11.10;59.80
4749;DHT22;2388;53.582;9.962;2023-01-08T14:15:27;11.10;54.80
4749;DHT22;2388;53.582;9.962;2023-01-08T14:17:54;11.00;54.40
4749;DHT22;2388;53.582;9.962;2023-01-08T14:20:37;11.00;53.50
4749;DHT22;2388;53.582;9.962;2023-01-08T14:23:10;10.90;53.20
4749;DHT22;2388;53.582;9.962;2023-01-08T14:25:36;10.90;55.30
4749;DHT22;2388;53.582;9.962;2023-01-08T14:28:04;10.80;57.00
4749;DHT22;2388;53.582;9.962;2023-01-08T14:30:30;10.80;55.60
4749;DHT22;2388;53.582;9.962;2023-01-08T14:32:57;10.70;57.00
4749;DHT22;2388;53.582;9.962;2023-01-08T14:35:32;10.70;50.40
4749;DHT22;2388;53.582;9.962;2023-01-08T14:38:00;10.60;42.50
4749;DHT22;2388;53.582;9.962;2023-01-08T14:40:35;10.50;37.40
4749;DHT22;2388;53.582;9.962;2023-01-08T14:43:07;10.50;39.00
4749;DHT22;2388;53.582;9.962;2023-01-08T14:45:33;10.50;41.00
4749;DHT22;2388;53.582;9.962;2023-01-08T14:48:08;10.40;42.60
4749;DHT22;2388;53.582;9.962;2023-01-08T14:50:37;10.40;43.00
4749;DHT22;2388;53.582;9.962;2023-01-08T14:53:07;10.40;44.10
4749;DHT22;2388;53.582;9.962;2023-01-08T14:55:36;10.30;41.60
4749;DHT22;2388;53.582;9.962;2023-01-08T14:58:22;10.30;46.00
4749;DHT22;2388;53.582;9.962;2023-01-08T15:01:00;10.20;44.80
4749;DHT22;2388;53.582;9.962;2023-01-08T15:03:31;10.20;45.80
4749;DHT22;2388;53.582;9.962;2023-01-08T15:05:57;10.20;46.80
4749;DHT22;2388;53.582;9.962;2023-01-08T15:08:26;10.20;47.90
4749;DHT22;2388;53.582;9.962;2023-01-08T15:13:35;10.10;49.50
4749;DHT22;2388;53.582;9.962;2023-01-08T15:16:26;10.10;52.30
4749;DHT22;2388;53.582;9.962;2023-01-08T15:21:26;10.10;49.70
4749;DHT22;2388;53.582;9.962;2023-01-08T15:23:54;10.10;51.10
4749;DHT22;2388;53.582;9.962;2023-01-08T15:26:21;10.00;54.20
4749;DHT22;2388;53.582;9.962;2023-01-08T15:28:51;10.00;56.80
4749;DHT22;2388;53.582;9.962;2023-01-08T15:33:50;9.90;60.50
4749;DHT22;2388;53.582;9.962;2023-01-08T15:36:15;9.90;61.50
4749;DHT22;2388;53.582;9.962;2023-01-08T15:38:41;9.90;62.30
4749;DHT22;2388;53.582;9.962;2023-01-08T15:41:09;9.80;62.80
4749;DHT22;2388;53.582;9.962;2023-01-08T15:43:35;9.80;63.30
4749;DHT22;2388;53.582;9.962;2023-01-08T15:46:00;9.80;68.00
4749;DHT22;2388;53.582;9.962;2023-01-08T15:48:26;9.80;67.30
4749;DHT22;2388;53.582;9.962;2023-01-08T15:50:51;9.80;68.50
4749;DHT22;2388;53.582;9.962;2023-01-08T15:53:20;9.80;71.20
4749;DHT22;2388;53.582;9.962;2023-01-08T15:55:47;9.70;77.40
4749;DHT22;2388;53.582;9.962;2023-01-08T15:58:14;9.70;79.20
4749;DHT22;2388;53.582;9.962;2023-01-08T16:00:41;9.60;78.60
4749;DHT22;2388;53.582;9.962;2023-01-08T16:03:07;9.70;79.20
4749;DHT22;2388;53.582;9.962;2023-01-08T16:05:34;9.60;81.30
4749;DHT22;2388;53.582;9.962;2023-01-08T16:07:59;9.70;97.60
4749;DHT22;2388;53.582;9.962;2023-01-08T16:10:25;9.70;81.90
4749;DHT22;2388;53.582;9.962;2023-01-08T16:12:50;9.70;80.70
4749;DHT22;2388;53.582;9.962;2023-01-08T16:15:16;9.70;81.80
4749;DHT22;2388;53.582;9.962;2023-01-08T16:17:42;9.60;81.90
4749;DHT22;2388;53.582;9.962;2023-01-08T16:20:09;9.60;82.70
4749;DHT22;2388;53.582;9.962;2023-01-08T16:22:35;9.70;99.90
4749;DHT22;2388;53.582;9.962;2023-01-08T16:25:01;9.70;92.40
4749;DHT22;2388;53.582;9.962;2023-01-08T16:27:26;9.70;78.60
4749;DHT22;2388;53.582;9.962;2023-01-08T16:29:52;9.70;77.20
4749;DHT22;2388;53.582;9.962;2023-01-08T16:32:17;9.60;76.30
4749;DHT22;2388;53.582;9.962;2023-01-08T16:34:43;9.60;78.30
4749;DHT22;2388;53.582;9.962;2023-01-08T16:37:08;9.50;78.20
4749;DHT22;2388;53.582;9.962;2023-01-08T16:39:34;9.50;81.90
4749;DHT22;2388;53.582;9.962;2023-01-08T16:41:59;9.50;82.40
4749;DHT22;2388;53.582;9.962;2023-01-08T16:44:26;9.50;81.20
4749;DHT22;2388;53.582;9.962;2023-01-08T16:46:53;9.50;81.70
4749;DHT22;2388;53.582;9.962;2023-01-08T16:49:19;9.50;85.10
4749;DHT22;2388;53.582;9.962;2023-01-08T16:51:45;9.50;84.40
4749;DHT22;2388;53.582;9.962;2023-01-08T16:54:15;9.40;83.20
4749;DHT22;2388;53.582;9.962;2023-01-08T16:56:41;9.40;88.30
4749;DHT22;2388;53.582;9.962;2023-01-08T16:59:08;9.40;88.60
4749;DHT22;2388;53.582;9.962;2023-01-08T17:01:33;9.40;85.70
4749;DHT22;2388;53.582;9.962;2023-01-08T17:03:59;9.40;87.60
4749;DHT22;2388;53.582;9.962;2023-01-08T17:06:24;9.40;85.80
4749;DHT22;2388;53.582;9.962;2023-01-08T17:08:50;9.40;89.50
4749;DHT22;2388;53.582;9.962;2023-01-08T17:11:18;9.40;90.20
4749;DHT22;2388;53.582;9.962;2023-01-08T17:13:44;9.40;88.20
4749;DHT22;2388;53.582;9.962;2023-01-08T17:16:12;9.40;87.20
4749;DHT22;2388;53.582;9.962;2023-01-08T17:18:40;9.40;87.00
4749;DHT22;2388;53.582;9.962;2023-01-08T17:21:07;9.40;90.20
4749;DHT22;2388;53.582;9.962;2023-01-08T17:23:33;9.40;90.60
4749;DHT22;2388;53.582;9.962;2023-01-08T17:26:00;9.40;89.30
4749;DHT22;2388;53.582;9.962;2023-01-08T17:28:28;9.40;90.60
4749;DHT22;2388;53.582;9.962;2023-01-08T17:31:04;9.40;91.00
4749;DHT22;2388;53.582;9.962;2023-01-08T17:33:30;9.40;92.90
4749;DHT22;2388;53.582;9.962;2023-01-08T17:35:56;9.40;95.00
4749;DHT22;2388;53.582;9.962;2023-01-08T17:38:23;9.40;99.90